createdAt,value
2022-10-20T00:01:56.543Z,2.28
2022-10-20T00:04:22.997Z,1.75
2022-10-20T00:06:49.431Z,1.60
2022-10-20T00:09:15.906Z,1.60
2022-10-20T00:11:43.114Z,1.60
2022-10-20T00:14:10.060Z,1.52
2022-10-20T00:16:37.895Z,1.85
2022-10-20T00:19:04.541Z,1.42
2022-10-20T00:21:32.763Z,1.67
2022-10-20T00:24:00.788Z,1.58
2022-10-20T00:26:28.424Z,1.88
2022-10-20T00:28:55.436Z,2.03
2022-10-20T00:31:23.587Z,1.75
2022-10-20T00:33:50.043Z,1.90
2022-10-20T00:36:18.788Z,1.90
2022-10-20T00:38:45.706Z,1.80
2022-10-20T00:41:20.551Z,2.35
2022-10-20T00:43:50.564Z,2.10
2022-10-20T00:46:20.503Z,1.85
2022-10-20T00:48:50.462Z,1.80
2022-10-20T00:51:20.224Z,1.90
2022-10-20T00:53:48.167Z,1.77
2022-10-20T00:56:15.001Z,1.92
2022-10-20T00:58:42.495Z,2.30
2022-10-20T01:01:09.513Z,1.92
2022-10-20T01:03:46.474Z,1.98
2022-10-20T01:06:18.864Z,1.83
2022-10-20T01:08:45.765Z,1.67
2022-10-20T01:11:27.706Z,1.60
2022-10-20T01:13:59.213Z,1.63
2022-10-20T01:16:32.644Z,1.48
2022-10-20T01:19:08.050Z,1.42
2022-10-20T01:21:47.185Z,1.80
2022-10-20T01:24:30.974Z,1.75
2022-10-20T01:27:16.198Z,1.80
2022-10-20T01:29:49.342Z,1.77
2022-10-20T01:32:40.987Z,1.70
2022-10-20T01:35:10.416Z,1.63
2022-10-20T01:38:16.649Z,2.00
2022-10-20T01:40:49.003Z,1.58
2022-10-20T01:43:19.456Z,2.28
2022-10-20T01:45:47.759Z,1.60
2022-10-20T01:48:17.367Z,1.80
2022-10-20T01:50:48.043Z,2.03
2022-10-20T01:53:14.658Z,1.67
2022-10-20T01:55:41.280Z,1.30
2022-10-20T01:58:29.431Z,1.50
2022-10-20T02:01:31.838Z,1.70
2022-10-20T02:04:01.062Z,1.60
2022-10-20T02:06:51.915Z,1.60
2022-10-20T02:09:43.895Z,1.60
2022-10-20T02:12:14.605Z,1.85
2022-10-20T02:14:42.097Z,2.17
2022-10-20T02:17:13.260Z,1.63
2022-10-20T02:19:42.490Z,1.85
2022-10-20T02:22:11.146Z,1.80
2022-10-20T02:24:42.340Z,1.50
2022-10-20T02:27:17.244Z,1.70
2022-10-20T02:29:48.079Z,1.70
2022-10-20T02:32:15.514Z,1.90
2022-10-20T02:34:42.637Z,1.67
2022-10-20T02:37:10.287Z,1.48
2022-10-20T02:39:36.843Z,1.67
2022-10-20T02:42:03.405Z,1.70
2022-10-20T02:44:29.954Z,1.63
2022-10-20T02:46:56.468Z,1.77
2022-10-20T02:49:22.926Z,1.83
2022-10-20T02:51:49.589Z,2.30
2022-10-20T02:54:16.052Z,1.77
2022-10-20T02:56:42.483Z,1.98
2022-10-20T02:59:13.398Z,2.08
2022-10-20T03:01:40.521Z,1.88
2022-10-20T03:04:07.069Z,1.90
2022-10-20T03:06:34.289Z,2.15
2022-10-20T03:09:00.750Z,2.10
2022-10-20T03:11:27.255Z,2.10
2022-10-20T03:13:53.719Z,1.58
2022-10-20T03:16:20.301Z,1.73
2022-10-20T03:18:46.830Z,1.98
2022-10-20T03:21:13.331Z,2.10
2022-10-20T03:23:39.771Z,2.00
2022-10-20T03:26:08.080Z,2.22
2022-10-20T03:28:34.614Z,1.90
2022-10-20T03:31:01.117Z,2.15
2022-10-20T03:33:27.622Z,1.73
2022-10-20T03:35:54.142Z,1.77
2022-10-20T03:38:20.616Z,2.10
2022-10-20T03:40:47.139Z,1.73
2022-10-20T03:43:15.386Z,1.80
2022-10-20T03:45:42.712Z,2.40
2022-10-20T03:48:10.312Z,1.88
2022-10-20T03:50:40.738Z,2.30
2022-10-20T03:53:07.852Z,2.88
2022-10-20T03:55:34.362Z,2.22
2022-10-20T03:58:01.071Z,2.67
2022-10-20T04:00:27.527Z,2.40
2022-10-20T04:02:54.097Z,2.95
2022-10-20T04:05:21.393Z,2.80
2022-10-20T04:07:48.425Z,2.28
2022-10-20T04:10:16.368Z,2.92
2022-10-20T04:12:44.335Z,2.55
2022-10-20T04:15:11.014Z,2.38
2022-10-20T04:20:05.626Z,2.38
2022-10-20T04:22:35.681Z,2.80
2022-10-20T04:25:02.304Z,2.25
2022-10-20T04:27:29.037Z,2.88
2022-10-20T04:29:55.535Z,3.08
2022-10-20T04:32:21.990Z,2.78
2022-10-20T04:34:49.273Z,2.88
2022-10-20T04:37:16.029Z,3.28
2022-10-20T04:39:42.545Z,2.88
2022-10-20T04:42:11.027Z,2.40
2022-10-20T04:44:37.456Z,2.85
2022-10-20T04:47:03.988Z,2.90
2022-10-20T04:49:31.268Z,2.58
2022-10-20T04:52:00.970Z,3.00
2022-10-20T04:54:27.714Z,2.83
2022-10-20T04:56:54.265Z,3.42
2022-10-20T04:59:20.754Z,3.13
2022-10-20T05:01:47.307Z,3.45
2022-10-20T05:04:16.990Z,3.20
2022-10-20T05:06:43.417Z,3.67
2022-10-20T05:09:14.328Z,3.17
2022-10-20T05:11:41.430Z,2.70
2022-10-20T05:14:08.198Z,3.38
2022-10-20T05:16:35.078Z,3.08
2022-10-20T05:19:02.425Z,3.50
2022-10-20T05:21:30.375Z,3.70
2022-10-20T05:23:58.615Z,2.80
2022-10-20T05:26:26.228Z,3.78
2022-10-20T05:28:53.223Z,3.03
2022-10-20T05:31:21.522Z,3.10
2022-10-20T05:33:50.454Z,3.58
2022-10-20T05:36:21.522Z,2.72
2022-10-20T05:38:49.176Z,3.30
2022-10-20T05:41:18.119Z,3.58
2022-10-20T05:44:04.728Z,3.20
2022-10-20T05:46:33.482Z,4.10
2022-10-20T05:49:01.586Z,3.35
2022-10-20T05:51:31.156Z,3.58
2022-10-20T05:53:58.953Z,3.30
2022-10-20T05:56:26.334Z,3.63
2022-10-20T05:58:53.047Z,3.45
2022-10-20T06:01:26.628Z,3.88
2022-10-20T06:03:57.933Z,4.30
2022-10-20T06:06:27.914Z,3.70
2022-10-20T06:08:56.468Z,3.47
2022-10-20T06:11:24.111Z,3.53
2022-10-20T06:13:53.023Z,3.80
2022-10-20T06:16:24.259Z,4.10
2022-10-20T06:18:51.168Z,3.70
2022-10-20T06:21:26.201Z,3.75
2022-10-20T06:23:52.750Z,3.67
2022-10-20T06:26:24.082Z,4.50
2022-10-20T06:28:59.823Z,4.07
2022-10-20T06:31:29.792Z,4.30
2022-10-20T06:33:57.080Z,3.47
2022-10-20T06:36:25.465Z,3.72
2022-10-20T06:38:56.382Z,4.47
2022-10-20T06:41:24.036Z,3.70
2022-10-20T06:43:50.695Z,4.20
2022-10-20T06:46:18.676Z,4.75
2022-10-20T06:48:45.544Z,3.97
2022-10-20T06:51:14.510Z,4.03
2022-10-20T06:53:45.747Z,4.35
2022-10-20T06:56:24.767Z,4.10
2022-10-20T06:58:53.058Z,4.13
2022-10-20T07:01:29.283Z,3.40
2022-10-20T07:03:57.834Z,4.63
2022-10-20T07:06:26.618Z,4.82
2022-10-20T07:08:56.594Z,4.35
2022-10-20T07:11:28.489Z,4.75
2022-10-20T07:13:55.369Z,4.55
2022-10-20T07:16:24.589Z,6.22
2022-10-20T07:18:51.649Z,4.35
2022-10-20T07:21:21.018Z,5.07
2022-10-20T07:23:48.887Z,4.63
2022-10-20T07:26:21.192Z,4.57
2022-10-20T07:28:54.811Z,4.30
2022-10-20T07:31:30.820Z,4.20
2022-10-20T07:34:12.829Z,4.63
2022-10-20T07:36:46.923Z,4.25
2022-10-20T07:39:15.843Z,4.20
2022-10-20T07:41:45.670Z,4.10
2022-10-20T07:44:12.192Z,4.60
2022-10-20T07:46:39.486Z,4.20
2022-10-20T07:49:38.302Z,4.85
2022-10-20T07:51:52.491Z,4.97
2022-10-20T07:54:18.950Z,4.85
2022-10-20T07:56:46.375Z,4.68
2022-10-20T07:59:13.971Z,5.00
2022-10-20T08:01:40.867Z,4.40
2022-10-20T08:04:07.388Z,4.28
2022-10-20T08:06:34.129Z,4.85
2022-10-20T08:09:00.729Z,4.80
2022-10-20T08:11:27.333Z,4.03
2022-10-20T08:13:55.569Z,4.50
2022-10-20T08:16:23.469Z,4.45
2022-10-20T08:21:41.849Z,4.10
2022-10-20T08:24:08.573Z,3.78
2022-10-20T08:26:35.045Z,3.20
2022-10-20T08:29:02.849Z,2.60
2022-10-20T08:31:29.313Z,2.78
2022-10-20T08:33:56.921Z,2.95
2022-10-20T08:36:24.712Z,3.28
2022-10-20T08:38:51.280Z,3.28
2022-10-20T08:41:25.047Z,2.38
2022-10-20T08:43:53.901Z,2.97
2022-10-20T08:46:25.039Z,3.20
2022-10-20T08:48:51.559Z,3.15
2022-10-20T08:51:20.226Z,3.28
2022-10-20T08:53:47.819Z,3.00
2022-10-20T08:56:14.773Z,2.83
2022-10-20T08:58:43.832Z,2.63
2022-10-20T09:01:25.811Z,3.08
2022-10-20T09:04:19.877Z,2.95
2022-10-20T09:06:49.754Z,2.95
2022-10-20T09:09:19.475Z,3.47
2022-10-20T09:11:46.211Z,3.50
2022-10-20T09:14:14.013Z,3.35
2022-10-20T09:16:59.117Z,2.85
2022-10-20T09:19:27.382Z,3.35
2022-10-20T09:21:57.743Z,3.10
2022-10-20T09:24:27.262Z,3.03
2022-10-20T09:26:59.289Z,2.92
2022-10-20T09:29:38.709Z,2.83
2022-10-20T09:35:18.758Z,3.28
2022-10-20T09:37:55.053Z,3.10
2022-10-20T09:40:22.817Z,2.53
2022-10-20T09:42:53.408Z,3.15
2022-10-20T09:45:23.168Z,2.90
2022-10-20T09:47:55.505Z,3.00
2022-10-20T09:50:31.701Z,2.70
2022-10-20T09:52:59.816Z,3.05
2022-10-20T09:55:30.365Z,3.05
2022-10-20T09:57:58.643Z,3.00
2022-10-20T10:00:50.602Z,3.22
2022-10-20T10:03:21.686Z,3.33
2022-10-20T10:05:54.135Z,3.85
2022-10-20T10:08:23.598Z,2.80
2022-10-20T10:11:05.322Z,3.08
2022-10-20T10:13:42.745Z,3.05
2022-10-20T10:16:14.175Z,2.80
2022-10-20T10:18:45.431Z,2.53
2022-10-20T10:21:17.647Z,2.85
2022-10-20T10:23:55.822Z,2.55
2022-10-20T10:26:38.263Z,2.22
2022-10-20T10:29:05.539Z,2.70
2022-10-20T10:31:33.468Z,2.20
2022-10-20T10:34:25.751Z,2.35
2022-10-20T10:36:52.226Z,2.10
2022-10-20T10:39:18.706Z,2.20
2022-10-20T10:44:40.869Z,2.08
2022-10-20T10:47:13.722Z,2.65
2022-10-20T10:49:54.394Z,2.38
2022-10-20T10:52:44.820Z,2.10
2022-10-20T10:55:47.269Z,2.10
2022-10-20T10:58:40.902Z,2.13
2022-10-20T11:01:43.517Z,2.00
2022-10-20T11:04:46.138Z,2.85
2022-10-20T11:07:51.406Z,2.80
2022-10-20T11:10:39.383Z,1.70
2022-10-20T11:13:15.809Z,1.80
2022-10-20T11:15:59.416Z,2.13
2022-10-20T11:18:44.805Z,2.28
2022-10-20T11:21:19.588Z,1.90
2022-10-20T11:24:06.493Z,1.83
2022-10-20T11:26:42.787Z,1.90
2022-10-20T11:29:17.002Z,1.75
2022-10-20T11:31:51.099Z,2.13
2022-10-20T11:34:38.192Z,1.65
2022-10-20T11:37:14.873Z,1.63
2022-10-20T11:39:46.123Z,2.10
2022-10-20T11:42:24.063Z,2.08
2022-10-20T11:44:52.643Z,1.75
2022-10-20T11:47:30.439Z,1.58
2022-10-20T11:49:56.987Z,1.60
2022-10-20T11:52:35.626Z,1.70
2022-10-20T11:55:22.661Z,1.40
2022-10-20T11:58:01.119Z,1.60
2022-10-20T12:00:45.662Z,1.48
2022-10-20T12:03:33.849Z,1.77
2022-10-20T12:06:37.958Z,1.70
2022-10-20T12:09:19.682Z,1.90
2022-10-20T12:11:52.053Z,1.50
2022-10-20T12:14:28.887Z,1.65
2022-10-20T12:16:55.322Z,1.65
2022-10-20T12:19:23.507Z,1.60
2022-10-20T12:22:18.911Z,1.83
2022-10-20T12:24:54.279Z,1.70
2022-10-20T12:27:26.274Z,1.98
2022-10-20T12:30:01.453Z,2.00
2022-10-20T12:32:27.884Z,1.50
2022-10-20T12:35:01.814Z,1.90
2022-10-20T12:37:33.997Z,1.67
2022-10-20T12:40:06.490Z,1.83
2022-10-20T12:42:54.680Z,1.80
2022-10-20T12:45:50.547Z,2.17
2022-10-20T12:48:21.876Z,1.60
2022-10-20T12:50:50.231Z,1.83
2022-10-20T12:53:28.059Z,1.83
2022-10-20T12:55:59.299Z,2.00
2022-10-20T12:58:36.686Z,1.63
2022-10-20T13:01:05.269Z,2.10
2022-10-20T13:03:31.739Z,1.90
2022-10-20T13:05:59.963Z,1.73
2022-10-20T13:08:34.594Z,1.70
2022-10-20T13:11:35.534Z,1.92
2022-10-20T13:14:13.621Z,1.35
2022-10-20T13:16:45.109Z,1.52
2022-10-20T13:19:17.143Z,1.85
2022-10-20T13:21:47.383Z,1.50
2022-10-20T13:24:27.387Z,1.75
2022-10-20T13:26:57.619Z,1.40
2022-10-20T13:29:30.807Z,1.42
2022-10-20T13:32:12.842Z,1.42
2022-10-20T13:34:56.502Z,1.50
2022-10-20T13:38:00.736Z,1.73
2022-10-20T13:40:50.068Z,1.40
2022-10-20T13:43:43.120Z,1.27
2022-10-20T13:46:22.298Z,1.58
2022-10-20T13:49:07.218Z,1.80
2022-10-20T13:51:46.972Z,2.58
2022-10-20T13:54:23.322Z,2.20
2022-10-20T13:56:50.378Z,1.67
2022-10-20T13:59:28.332Z,1.60
2022-10-20T14:01:58.012Z,1.60
2022-10-20T14:04:34.698Z,1.77
2022-10-20T14:07:13.997Z,1.45
2022-10-20T14:09:45.234Z,1.83
2022-10-20T14:12:23.402Z,1.80
2022-10-20T14:14:50.013Z,2.00
2022-10-20T14:17:21.901Z,2.13
2022-10-20T14:19:49.065Z,2.00
2022-10-20T14:22:15.478Z,2.20
2022-10-20T14:24:44.285Z,1.70
2022-10-20T14:27:28.655Z,2.03
2022-10-20T14:29:56.235Z,2.08
2022-10-20T14:32:25.560Z,2.08
2022-10-20T14:34:55.067Z,1.75
2022-10-20T14:37:31.266Z,1.45
2022-10-20T14:40:01.988Z,1.90
2022-10-20T14:42:30.949Z,1.73
2022-10-20T14:44:58.257Z,1.95
2022-10-20T14:47:25.225Z,1.67
2022-10-20T14:49:53.009Z,1.88
2022-10-20T14:52:21.726Z,1.73
2022-10-20T14:54:50.628Z,1.85
2022-10-20T14:57:17.075Z,1.80
2022-10-20T15:00:04.168Z,1.60
2022-10-20T15:02:32.195Z,1.55
2022-10-20T15:05:25.093Z,1.45
2022-10-20T15:07:52.358Z,1.70
2022-10-20T15:10:21.560Z,1.77
2022-10-20T15:12:49.813Z,1.50
2022-10-20T15:15:18.874Z,1.55
2022-10-20T15:17:47.482Z,1.80
2022-10-20T15:20:30.240Z,2.00
2022-10-20T15:22:57.597Z,2.10
2022-10-20T15:25:25.465Z,1.63
2022-10-20T15:27:52.715Z,1.73
2022-10-20T15:30:21.099Z,1.85
2022-10-20T15:32:48.061Z,2.20
2022-10-20T15:35:19.543Z,2.10
2022-10-20T15:37:51.230Z,2.10
2022-10-20T15:40:18.037Z,1.85
2022-10-20T15:42:44.524Z,2.25
2022-10-20T15:45:19.166Z,1.98
2022-10-20T15:47:46.449Z,2.30
2022-10-20T15:50:13.650Z,2.67
2022-10-20T15:52:40.565Z,2.10
2022-10-20T15:55:22.940Z,2.20
2022-10-20T15:57:53.230Z,2.80
2022-10-20T16:00:21.321Z,2.75
2022-10-20T16:02:49.322Z,2.30
2022-10-20T16:05:20.766Z,2.50
2022-10-20T16:07:47.429Z,2.72
2022-10-20T16:10:14.915Z,2.53
2022-10-20T16:12:41.574Z,2.25
2022-10-20T16:15:09.798Z,3.03
2022-10-20T16:17:36.443Z,2.75
2022-10-20T16:20:04.506Z,3.30
2022-10-20T16:22:30.936Z,2.92
2022-10-20T16:25:01.325Z,3.00
2022-10-20T16:27:31.850Z,2.80
2022-10-20T16:29:58.526Z,2.72
2022-10-20T16:32:25.217Z,2.90
2022-10-20T16:34:51.693Z,2.60
2022-10-20T16:37:18.277Z,2.90
2022-10-20T16:39:45.375Z,2.85
2022-10-20T16:42:11.813Z,3.38
2022-10-20T16:44:38.281Z,3.60
2022-10-20T16:47:04.807Z,3.50
2022-10-20T16:49:31.269Z,3.50
2022-10-20T16:51:57.753Z,3.47
2022-10-20T16:54:24.270Z,3.38
2022-10-20T16:56:50.962Z,3.65
2022-10-20T16:59:17.455Z,4.20
2022-10-20T17:01:46.158Z,3.80
2022-10-20T17:04:15.239Z,3.28
2022-10-20T17:06:41.703Z,3.95
2022-10-20T17:09:11.371Z,3.63
2022-10-20T17:11:37.870Z,3.83
2022-10-20T17:14:04.352Z,4.05
2022-10-20T17:16:33.263Z,4.13
2022-10-20T17:19:02.010Z,4.10
2022-10-20T17:21:29.702Z,4.30
2022-10-20T17:23:57.942Z,3.63
2022-10-20T17:26:26.382Z,4.30
2022-10-20T17:29:00.425Z,4.13
2022-10-20T17:31:27.394Z,4.50
2022-10-20T17:33:55.775Z,3.90
2022-10-20T17:36:26.269Z,3.78
2022-10-20T17:38:57.353Z,3.65
2022-10-20T17:41:24.111Z,3.67
2022-10-20T17:43:54.431Z,4.13
2022-10-20T17:46:22.182Z,4.30
2022-10-20T17:48:48.653Z,4.65
2022-10-20T17:51:22.189Z,3.72
2022-10-20T17:53:50.896Z,4.50
2022-10-20T17:56:23.269Z,4.03
2022-10-20T17:58:51.689Z,3.38
2022-10-20T18:01:27.644Z,3.97
2022-10-20T18:03:59.114Z,4.22
2022-10-20T18:06:32.703Z,4.35
2022-10-20T18:09:02.812Z,3.70
2022-10-20T18:11:31.181Z,3.67
2022-10-20T18:13:59.535Z,3.75
2022-10-20T18:16:27.860Z,3.97
2022-10-20T18:18:59.381Z,3.80
2022-10-20T18:21:27.121Z,4.53
2022-10-20T18:23:57.943Z,4.13
2022-10-20T18:26:24.990Z,4.22
2022-10-20T18:28:52.060Z,4.18
2022-10-20T18:31:22.442Z,4.70
2022-10-20T18:33:50.704Z,4.38
2022-10-20T18:36:18.878Z,4.15
2022-10-20T18:38:46.384Z,3.85
2022-10-20T18:41:18.223Z,4.13
2022-10-20T18:43:47.795Z,3.70
2022-10-20T18:46:14.935Z,4.13
2022-10-20T18:48:42.497Z,3.88
2022-10-20T18:51:10.073Z,3.60
2022-10-20T18:53:37.903Z,3.40
2022-10-20T18:56:05.488Z,3.75
2022-10-20T18:58:33.755Z,3.60
2022-10-20T19:01:05.559Z,3.63
2022-10-20T19:03:33.450Z,3.88
2022-10-20T19:06:08.697Z,3.25
2022-10-20T19:08:36.924Z,3.55
2022-10-20T19:11:05.411Z,3.65
2022-10-20T19:13:32.017Z,3.60
2022-10-20T19:15:59.689Z,3.55
2022-10-20T19:18:28.213Z,3.67
2022-10-20T19:20:56.038Z,4.38
2022-10-20T19:23:23.685Z,4.82
2022-10-20T19:26:11.324Z,3.63
2022-10-20T19:28:40.261Z,4.10
2022-10-20T19:31:23.643Z,3.65
2022-10-20T19:33:53.121Z,4.15
2022-10-20T19:36:20.060Z,3.97
2022-10-20T19:38:47.003Z,4.10
2022-10-20T19:41:13.550Z,3.72
2022-10-20T19:43:40.332Z,3.67
2022-10-20T19:46:14.097Z,4.53
2022-10-20T19:48:40.632Z,3.85
2022-10-20T19:51:09.749Z,4.10
2022-10-20T19:53:38.273Z,4.03
2022-10-20T19:56:06.170Z,4.10
2022-10-20T19:58:35.140Z,4.28
2022-10-20T20:01:03.417Z,3.90
2022-10-20T20:03:30.178Z,4.18
2022-10-20T20:06:08.202Z,4.00
2022-10-20T20:08:35.466Z,3.58
2022-10-20T20:11:03.791Z,3.70
2022-10-20T20:13:31.307Z,3.65
2022-10-20T20:15:57.787Z,3.85
2022-10-20T20:18:24.327Z,4.47
2022-10-20T20:20:50.778Z,3.60
2022-10-20T20:23:22.498Z,4.07
2022-10-20T20:25:52.401Z,4.15
2022-10-20T20:28:18.860Z,3.95
2022-10-20T20:30:45.322Z,3.80
2022-10-20T20:33:11.910Z,4.43
2022-10-20T20:35:38.358Z,4.15
2022-10-20T20:38:04.797Z,4.25
2022-10-20T20:40:31.335Z,3.47
2022-10-20T20:43:00.155Z,4.10
2022-10-20T20:45:26.606Z,3.90
2022-10-20T20:47:53.118Z,3.97
2022-10-20T20:50:19.553Z,4.15
2022-10-20T20:52:48.567Z,3.95
2022-10-20T20:55:15.250Z,4.45
2022-10-20T20:57:41.688Z,4.32
2022-10-20T21:00:08.993Z,3.80
2022-10-20T21:02:35.542Z,4.03
2022-10-20T21:05:02.010Z,4.03
2022-10-20T21:07:28.443Z,4.07
2022-10-20T21:09:55.030Z,3.47
2022-10-20T21:12:21.509Z,3.83
2022-10-20T21:14:48.700Z,3.13
2022-10-20T21:17:15.194Z,3.85
2022-10-20T21:19:41.661Z,3.78
2022-10-20T21:22:08.120Z,3.97
2022-10-20T21:24:35.415Z,3.80
2022-10-20T21:27:01.920Z,3.85
2022-10-20T21:29:28.431Z,4.35
2022-10-20T21:31:58.559Z,3.92
2022-10-20T21:34:25.686Z,3.85
2022-10-20T21:36:52.223Z,3.83
2022-10-20T21:39:18.911Z,3.92
2022-10-20T21:41:45.798Z,4.28
2022-10-20T21:44:13.440Z,4.00
2022-10-20T21:46:47.689Z,3.45
2022-10-20T21:49:16.569Z,3.30
2022-10-20T21:51:45.810Z,3.78
2022-10-20T21:54:18.062Z,4.35
2022-10-20T21:56:46.873Z,3.78
2022-10-20T21:59:21.656Z,3.90
2022-10-20T22:01:48.777Z,4.10
2022-10-20T22:04:15.823Z,4.05
2022-10-20T22:06:45.387Z,3.80
2022-10-20T22:09:12.769Z,4.10
2022-10-20T22:11:42.258Z,4.18
2022-10-20T22:14:08.889Z,4.50
2022-10-20T22:16:37.230Z,3.90
2022-10-20T22:19:11.457Z,4.10
2022-10-20T22:21:39.856Z,3.85
2022-10-20T22:24:07.138Z,4.22
2022-10-20T22:26:34.436Z,4.05
2022-10-20T22:29:01.770Z,4.20
2022-10-20T22:31:28.459Z,4.78
2022-10-20T22:33:56.524Z,4.82
2022-10-20T22:36:23.778Z,4.28
2022-10-20T22:38:50.211Z,4.10
2022-10-20T22:41:16.719Z,3.90
2022-10-20T22:43:43.234Z,4.03
2022-10-20T22:46:09.895Z,4.13
2022-10-20T22:48:36.800Z,4.30
2022-10-20T22:51:08.011Z,4.25
2022-10-20T22:53:35.032Z,4.63
2022-10-20T22:56:12.792Z,4.50
2022-10-20T22:58:39.775Z,4.32
2022-10-20T23:01:08.056Z,4.68
2022-10-20T23:03:35.549Z,5.13
2022-10-20T23:06:06.650Z,4.43
2022-10-20T23:08:38.571Z,3.97
2022-10-20T23:11:05.168Z,4.00
2022-10-20T23:13:31.663Z,3.90
2022-10-20T23:15:59.682Z,4.07
2022-10-20T23:18:26.129Z,4.57
2022-10-20T23:20:54.792Z,4.70
2022-10-20T23:23:23.949Z,4.75
2022-10-20T23:25:51.428Z,4.68
2022-10-20T23:28:18.506Z,4.65
2022-10-20T23:30:45.299Z,4.63
2022-10-20T23:33:11.832Z,5.40
2022-10-20T23:35:38.669Z,4.78
2022-10-20T23:38:06.504Z,4.60
2022-10-20T23:40:32.993Z,4.50
2022-10-20T23:42:59.411Z,4.35
2022-10-20T23:45:25.963Z,4.93
2022-10-20T23:47:52.405Z,4.63
2022-10-20T23:50:21.216Z,4.60
2022-10-20T23:52:48.193Z,4.22
2022-10-20T23:55:15.685Z,5.03
2022-10-20T23:57:42.331Z,4.63
